Timeline UpdatesTrip UpdatesNews PostsPvt PostsTravel TipsAdmin PostsConv PostsFollowed PostsChat RequestsBlog PostsPNR Posts

Disclaimer
Search
 
 
Sat Aug 23, 2014 05:05:17 ISTHomeTrainsΣChainsAtlasPNRForumGalleryNewsFAQTripsMembersLoginFeedback
No Recent News for this Train
Other Trains in the News **new
Latest...
..
Mon Dec 30, 2013 (12:01AM)
⇐ Return Journey: Train# 19038

19037/Avadh Express

Oct 03 2013 (4:56PM)
Change Departure Station:
Change Arrival Station:
Post a Train Travel TipPost a Train Travel Tip **new
Post a Comment/Question/Picture/VideoPost a Comment/Question/Picture/Video
Pantry/Catering
✓ Pantry Car Avbl
✓ Catering Avbl
Loco/Rake Reversals
LJN/Lucknow Junction (6);
RSA - Rake Sharing
19037/19038 have RSA with 19039/19040.
Rake/Coach Composition
Wap 4 BRC shed-SLR-S15-S14-S13-S12-S11-S10-S9-S8-S7-S6-S5-S4-S3-S2-S1-PC-B2-B1-A1-GEN-GEN-SLR; Total 23 Coaches
Loco
BDTS-LJN : BRC/CNB WAP-4; LJN-GKP : GD WDM-3A Entry NO.731585
News    PNR    Forum    Time-Table    Availability    Fare Chart    Map    Arr/Dep History    Trips    Gallery    ΣChains    X/O    Timeline    
Travel Time: 34h 32m    58 halts    Distance: 1592 km    Avg Speed: 46 km/hr
Type: Mail/Express
Zone: WR/Western
Departs @ 03:08 (Avg 7m late)
Platform# 1
 M WT S
Surat/ST 
Arrives @ 13:40 +1 night (Avg 5m late)
Platform# 7
S T TF 
Gorakhpur Junction/GKP 

58 halts. 241 intermediate Stations between Surat and Gorakhpur Junction

Show ALL intermediate Stations  Show Old Time-Table

#CodeStation NameX/OArrivesAvgDepartsAvgHaltPFDay#KmSpeedElevZoneAddress
1BDTSMumbai Bandra Terminus (5)  -22:40+111-252.2234mWRMumbai 400050, Maharashtra
2ADHMumbai Andheri (9)  22:56+322:58+42m81-246.05012mWRMumbai, Maharashtra
3BVIMumbai Borivali (8)  23:13+923:18+105m61-233.46719mWRMumbai - 400092, Maharashtra
4BORBoisar (3)  00:19+1400:21+142m22-165.26017mWRBoisar Tel.no-02525-266626, Maharashtra
5VAPIVapi (3)X  01:31+1001:33+112m12-94.96327mWRVapi, Gujarat
6BLValsad (3)XO  01:58+802:00+82m22-68.76515mWRValsad, Gujarat
7ST»Surat (4)»  03:03+703:08+75m120.06519mWRSurat 395001, Gujarat
8AKVAnkleshwar Junction (4)X  03:54+1303:56+142m1249.97319mWRAnkleshwar, Gujarat
9BRCVadodara Junction (7)X  05:02+2105:12+1910m32129.87036mWRVadodara 390005, Gujarat
10GDAGodhra Junction (3)  06:15+1406:18+143m22203.780122mWRGodhra, Gujarat
11DHDDahod (3)  07:13+3407:15+342m32276.890313mWRDahod, Gujarat
12MGNMeghnagar (3)  07:37+4107:39+412m12309.974317mWRJhabua, Madhya Pradesh
13BMIBamnia (2)X  08:08+4608:10+462m12345.434392mWRBamnia, Madhya Pradesh
14RTMRatlam Junction (7)  09:30+1609:50+1920m62390.275495mWRRatlam, Madhya Pradesh
15KUHKhachrod (2)X  10:12+2510:14+262m22417.820497mWRUjjain, Madhya Pradesh
16NADNagda Junction (4)X  10:55+611:00+85m--2431.673468mWRNagda, Madhya Pradesh
17MEPMahidpur Road  11:14+1311:16+142m--2448.784493mWCRGogapur, Madhya Pradesh
18VMAVikramgarh Alot (2)X  11:33+1511:35+152m22472.673443mWCRKota Division, Madhya Pradesh
19CMUChau Mahla (3)  11:53+1611:55+162m22494.471426mWCRJhalawar, Rajasthan
20SVASuwasra (2)  12:08+1812:10+182m--2509.862450mWCRSuwasra, Madhya Pradesh
21SGZShamgarh (3)X  12:23+1812:25+182m--2523.281463mWCRMandsaur, Madhya Pradesh
22GOHGaroth (2)  12:33+2012:35+202m22534.076441mWCRMadhya Pradesh 458880, Madhya Pradesh
23BWMBhawani Mandi (3)X  12:53+2112:55+212m--2556.776384mWCRBhawani Mandi, Madhya Pradesh
24JHWJhalawar Road (3)  13:08+2113:10+212m--2573.274361mWCRJhalawar City, Rajasthan
25RMARamganj Mandi Junction (3)  13:20+2213:22+212m--2585.554358mWCRRamganj Mandi, Rajasthan
26MKXMorak (2)  13:32+2113:34+222m22594.681337mWCRMorak, Rajasthan
27DKNTDakaniya Talav (2)X  14:13+2714:15+282m12647.522278mWCRKota, Rajasthan
28KOTAKota Junction (5)X  14:40+1914:50+1910m12656.8110256mWCRKota, Rajasthan
29LKELakheri (3)  15:23+3815:25+402m22717.466228mWCRBundi, Rajasthan
30IDGIndargarh Sumerganj Mandi (2)  15:35+4315:37+432m22728.445247mWCRIndargarh, Rajasthan
31SWMSawai Madhopur Junction (4)X  16:25+2816:30+295m--2764.671266mWCRSawai Madhopur, Rajasthan
32GGCGangapur City (3)X  17:24+2817:25+321m--2828.582270mWCRGangapur, Rajasthan
33SMBJShri Mahabirji (3)  17:50+3617:52+362m22862.661240mWCRKarauli, Rajasthan
34HANHindaun City (2)X  18:02+3518:04+352m--2872.826230mWCRKarauli, Rajasthan
35BXNBayana Junction (3)  19:20+519:25+65m12905.747198mWCRBayana, Rajasthan
36RBSRupbas (2)X  20:09+720:11+152m12939.843178mNCRJAGNER ROAD, Rajasthan
37FTSFatehpur Sikri (2)  20:31+1120:33+152m12954.050176mNCRAgra, Uttar Pradesh
38KLBKiraoli (1)  20:48+1520:50+162m12966.436174mNCRKiraoli, Uttar Pradesh
39IDHIdgah Agra Junction (3)  21:26+1421:28+232m12988.18168mNCRAgra, Uttar Pradesh
40AFAgra Fort (3)  21:45+1821:55+2910m12990.215170mNCRRakabganj, Uttar Pradesh
41TDLTundla Junction (5)XO  23:25+2923:35+3910m321013.133167mNCRDistt.Firozabad, Uttar Pradesh
42FZDFirozabad (4)X  00:05+3300:07+362m231029.757164mNCRFirozabad, Uttar Pradesh
43SKBShikohabad Junction (4)X  00:28+3500:30+402m231049.585166mNCRDistrict Firozabad, Uttar Pradesh
44ETWEtawah (5)X  01:09+4201:11+492m331104.970154mNCRDistt. Etawah, Uttar Pradesh
45BNTBharthana (3)XO  01:28+5101:30+552m331124.848147mNCRBharthana, Uttar Pradesh
46PHDPhaphund (4)X  02:15+4502:17+482m331161.136146mNCRdist. Auraiya, Uttar Pradesh
47CNBKanpur Central (10)  04:35+204:45+310m--31244.350128mNCRKANPUR-208 001, Uttar Pradesh
48ONUnnao Junction (5)X  05:06+1905:08+192m--31261.742129mNRUnnao, Uttar Pradesh
49LJNLucknow Junction (6)↵¶06:25+606:50+1025m431315.612126mNERLucknow, Uttar Pradesh
50LCLucknow City (3)  07:14+807:16+122m--31320.327127mNERLucknow, Uttar Pradesh
51BNZBadshahnagar (2)  07:30+1207:35+115m--31326.643116mNERLucknow, Uttar Pradesh
52GTNRGomti Nagar (3)  07:41+1307:43+132m131330.945117mNERLucknow, Uttar Pradesh
53BBKBarabanki Junction (4)  08:10+1308:12+142m--31351.258122mNRPin-225001, Uttar Pradesh
54BUWBurhwal Junction (3)  08:40+2108:42+212m--31378.354119mNERBarabanki, Uttar Pradesh
55JLDJarwal Road (2)X  09:00+2509:02+272m--31394.457112mNERBehraich, Uttar Pradesh
56CLJColonelGanj (2)X  09:20+3109:22+312m--31411.633108mNERGonda, Uttar Pradesh
57GDGonda Junction (3)  10:15+2010:25+1810m231440.573110mNERGonda 271001, Uttar Pradesh
58MURMankapur Junction (5)X  10:48+2110:50+212m--31468.465104mNERDistrict Gonda, Uttar Pradesh
59MSWMaskanwa (2)  11:03+2311:05+232m--31482.433103mNERChhapaiya Rd, Uttar Pradesh
60SNCSwami Narayan Chhapia (2)11:13+2211:14+231m--31486.8114100mNERS Narayan Chpla, Uttar Pradesh
61BVBabhnan (2)  11:20+2911:22+292m--31498.166101mNERDistrict- Basti, Uttar Pradesh
62BSTBasti (4)  11:50+2411:55+235m231528.97790mNERBasti 272001, Uttar Pradesh
63KLDKhalilabad (3)  12:18+2912:20+292m--31558.53686mNERKhalilabad- 272175, Uttar Pradesh
64MHHMaghar (3)  12:34+2512:36+252m--31567.03383mNERNH 28. Distt- SantKabirNagar- 272173, Uttar Pradesh
65SWASahjanwa (2)X  12:51+1912:53+202m--31575.22280mNERGorakhpur - 273209, Uttar Pradesh
66GKP•Gorakhpur Junction (10)•  13:40+5-731592.4-84mNERGorakhpur 273001, Uttar Pradesh
Scroll to Top
Scroll to Bottom